Time;durP1;ratioP1;P1;durP2;ratioP2;P2;SDS_P1;SDS_P2;PMS_P1;PMS_P2;Temp;Humidity;BMP_temperature;BMP_pressure;BME280_temperature;BME280_humidity;BME280_pressure;Samples;Min_cycle;Max_cycle;Signal;HPM_P1;HPM_P2
2022/12/21 00:01:11;;;;;;;23.83;11.40;;;7.40;97.30;;;;;;5000574;28;20030;-71
2022/12/21 00:03:37;;;;;;;20.60;10.20;;;7.40;97.30;;;;;;5019481;28;20124;-71
2022/12/21 00:06:04;;;;;;;24.15;10.85;;;7.40;97.10;;;;;;4998679;28;20430;-70
2022/12/21 00:08:30;;;;;;;26.90;11.27;;;7.20;97.60;;;;;;5001368;28;20454;-70
2022/12/21 00:10:59;;;;;;;24.90;11.52;;;7.20;97.80;;;;;;4998182;28;20165;-70
2022/12/21 00:13:26;;;;;;;25.65;12.38;;;7.20;97.90;;;;;;4999044;28;20033;-71
2022/12/21 00:15:59;;;;;;;23.42;10.88;;;7.20;98.00;;;;;;4998922;28;20053;-70
2022/12/21 00:18:25;;;;;;;25.02;12.60;;;7.20;98.10;;;;;;4998244;28;20041;-71
2022/12/21 00:21:09;;;;;;;22.80;11.25;;;7.30;98.00;;;;;;4999373;28;20049;-71
2022/12/21 00:23:35;;;;;;;25.05;11.95;;;7.30;97.80;;;;;;4996645;28;20405;-71
2022/12/21 00:26:03;;;;;;;25.55;11.50;;;7.20;98.10;;;;;;4999279;28;20054;-71
2022/12/21 00:28:29;;;;;;;26.65;11.68;;;7.20;98.30;;;;;;5001633;28;20030;-71
2022/12/21 00:31:02;;;;;;;27.60;12.18;;;7.10;98.40;;;;;;5000228;28;20064;-70
2022/12/21 00:33:28;;;;;;;29.85;11.60;;;7.20;98.30;;;;;;4998888;28;20030;-71
2022/12/21 00:35:54;;;;;;;23.55;10.85;;;7.30;98.00;;;;;;4998495;28;20057;-71
2022/12/21 00:38:20;;;;;;;25.20;11.85;;;7.30;97.90;;;;;;5001186;28;20107;-70
2022/12/21 00:40:45;;;;;;;22.00;11.68;;;7.40;97.70;;;;;;5001255;28;20034;-71
2022/12/21 00:43:12;;;;;;;23.90;10.60;;;7.40;97.60;;;;;;5000427;28;20565;-70
2022/12/21 00:45:38;;;;;;;21.92;10.30;;;7.40;97.60;;;;;;5001537;28;20030;-70
2022/12/21 00:48:05;;;;;;;26.88;12.40;;;7.40;97.70;;;;;;4998419;28;20030;-70
2022/12/21 00:50:33;;;;;;;20.67;10.43;;;7.30;97.80;;;;;;5025410;28;20041;-70
2022/12/21 00:52:59;;;;;;;27.40;12.13;;;7.30;97.90;;;;;;4997094;28;20506;-70
2022/12/21 00:55:25;;;;;;;23.88;11.18;;;7.30;97.90;;;;;;4995418;28;20117;-70
2022/12/21 00:57:51;;;;;;;26.83;12.13;;;7.30;98.20;;;;;;5000213;28;20494;-71
2022/12/21 01:00:17;;;;;;;23.92;11.38;;;7.30;98.00;;;;;;4993298;28;20033;-69
2022/12/21 01:02:43;;;;;;;26.50;11.27;;;7.20;98.10;;;;;;4994039;28;20037;-69
2022/12/21 01:05:08;;;;;;;23.17;11.50;;;7.30;98.20;;;;;;5001822;28;20072;-69
2022/12/21 01:07:34;;;;;;;23.25;11.13;;;7.30;98.00;;;;;;4998518;28;20068;-69
2022/12/21 01:10:00;;;;;;;22.40;11.05;;;7.30;98.10;;;;;;4995031;28;20142;-70
2022/12/21 01:12:26;;;;;;;26.13;11.50;;;7.30;97.80;;;;;;4999757;28;20761;-71
2022/12/21 01:14:52;;;;;;;28.40;12.63;;;7.30;98.00;;;;;;4996106;28;20030;-69
2022/12/21 01:17:18;;;;;;;25.38;12.38;;;7.30;98.10;;;;;;4994563;28;20041;-70
2022/12/21 01:19:44;;;;;;;27.77;12.45;;;7.20;98.10;;;;;;4996357;28;20049;-70
2022/12/21 01:22:10;;;;;;;27.08;12.57;;;7.20;98.30;;;;;;4997579;28;20037;-69
2022/12/21 01:24:36;;;;;;;26.60;12.13;;;7.20;98.50;;;;;;5002199;28;20041;-70
2022/12/21 01:27:01;;;;;;;26.60;12.43;;;7.20;98.50;;;;;;4996267;28;20040;-71
2022/12/21 01:29:27;;;;;;;27.13;12.48;;;7.20;98.40;;;;;;4992335;28;20774;-70
2022/12/21 01:31:53;;;;;;;24.65;11.73;;;7.20;98.50;;;;;;5001948;28;20049;-70
2022/12/21 01:34:18;;;;;;;28.08;11.48;;;7.30;98.40;;;;;;5002019;28;20399;-70
2022/12/21 01:36:45;;;;;;;28.10;12.55;;;7.30;98.30;;;;;;5000420;28;20034;-70
2022/12/21 01:39:11;;;;;;;29.10;12.45;;;7.40;98.30;;;;;;4996283;28;20048;-70
2022/12/21 01:41:36;;;;;;;26.83;12.35;;;7.50;98.10;;;;;;4997681;28;20036;-70
2022/12/21 01:44:04;;;;;;;27.50;12.23;;;7.40;97.90;;;;;;4999386;28;20141;-70
2022/12/21 01:46:41;;;;;;;25.45;12.13;;;7.40;97.90;;;;;;4999932;28;20549;-70
2022/12/21 01:49:30;;;;;;;27.38;11.38;;;7.30;98.30;;;;;;4996511;28;20053;-70
2022/12/21 01:52:06;;;;;;;23.52;11.95;;;7.30;98.30;;;;;;4999502;28;20045;-70
2022/12/21 01:54:45;;;;;;;25.85;11.70;;;7.30;98.50;;;;;;5001361;28;20073;-69
2022/12/21 01:57:13;;;;;;;25.27;11.82;;;7.20;98.50;;;;;;4995664;28;20038;-69
2022/12/21 01:59:46;;;;;;;29.60;13.45;;;7.10;98.80;;;;;;4999216;28;20033;-69
2022/12/21 02:02:39;;;;;;;27.98;13.10;;;6.90;99.20;;;;;;5025093;28;20045;-70
2022/12/21 02:05:18;;;;;;;24.02;11.73;;;6.80;99.50;;;;;;4993711;28;20029;-70
2022/12/21 02:07:45;;;;;;;31.15;13.40;;;6.90;99.70;;;;;;4997274;28;20030;-69
2022/12/21 02:10:11;;;;;;;26.45;12.10;;;7.00;99.40;;;;;;5001470;28;20026;-70
2022/12/21 02:12:40;;;;;;;31.40;12.93;;;7.10;99.30;;;;;;4998265;28;20072;-72
2022/12/21 02:15:06;;;;;;;29.15;12.52;;;7.10;99.10;;;;;;4995438;28;20057;-69
2022/12/21 02:17:50;;;;;;;30.40;12.38;;;7.10;99.20;;;;;;5023015;28;20048;-70
2022/12/21 02:20:43;;;;;;;25.70;12.65;;;7.10;99.00;;;;;;4998426;28;20449;-70
2022/12/21 02:23:41;;;;;;;26.58;12.65;;;7.20;99.10;;;;;;4996668;28;20049;-70
2022/12/21 02:26:26;;;;;;;29.40;12.60;;;7.20;98.90;;;;;;4998446;28;20034;-69
2022/12/21 02:29:19;;;;;;;27.88;12.65;;;7.10;98.90;;;;;;4995334;28;20034;-69
2022/12/21 02:31:53;;;;;;;33.03;13.18;;;7.10;99.20;;;;;;4990579;28;20757;-70
2022/12/21 02:34:49;;;;;;;30.55;13.43;;;7.10;98.90;;;;;;5019424;28;20027;-70
2022/12/21 02:37:49;;;;;;;33.60;13.43;;;7.10;98.90;;;;;;4991193;28;20093;-69
2022/12/21 02:40:32;;;;;;;29.23;13.20;;;7.10;99.10;;;;;;4996211;28;20042;-70
2022/12/21 02:46:28;;;;;;;28.50;13.15;;;6.90;99.40;;;;;;4996475;28;20048;-71
2022/12/21 02:49:00;;;;;;;35.90;13.60;;;7.00;99.30;;;;;;4993442;28;20034;-70
2022/12/21 02:51:41;;;;;;;32.80;13.88;;;6.90;99.10;;;;;;5000933;28;20040;-70
2022/12/21 02:54:09;;;;;;;29.73;13.52;;;6.80;99.50;;;;;;4995183;28;20666;-69
2022/12/21 02:56:35;;;;;;;31.70;13.63;;;6.90;99.60;;;;;;4999213;28;20029;-69
2022/12/21 02:59:02;;;;;;;34.63;13.05;;;7.00;99.50;;;;;;4999065;28;20604;-69
2022/12/21 03:01:48;;;;;;;28.20;13.95;;;7.00;99.50;;;;;;4995673;28;20045;-69
2022/12/21 03:04:26;;;;;;;30.67;13.60;;;7.00;99.50;;;;;;4995366;28;20549;-69
2022/12/21 03:07:21;;;;;;;27.08;13.38;;;7.00;99.50;;;;;;5000136;28;20065;-70
2022/12/21 03:10:05;;;;;;;30.13;12.23;;;7.10;99.30;;;;;;4997538;28;20041;-70
2022/12/21 03:12:42;;;;;;;25.98;12.25;;;7.10;99.10;;;;;;4997461;28;20041;-69
2022/12/21 03:15:18;;;;;;;27.58;13.77;;;7.20;99.00;;;;;;5000254;28;20913;-69
2022/12/21 03:17:54;;;;;;;31.80;14.48;;;7.20;98.80;;;;;;4997316;28;20112;-69
2022/12/21 03:20:42;;;;;;;31.23;12.80;;;7.30;98.60;;;;;;4998877;28;20561;-70
2022/12/21 03:23:11;;;;;;;31.58;13.23;;;7.20;98.60;;;;;;4993618;28;20068;-69
2022/12/21 03:25:40;;;;;;;30.10;13.73;;;7.20;98.60;;;;;;4996737;28;20724;-70
2022/12/21 03:28:11;;;;;;;31.20;14.00;;;7.20;98.70;;;;;;5000972;28;20060;-69
2022/12/21 03:30:43;;;;;;;34.05;13.75;;;7.20;98.70;;;;;;4995651;28;20856;-69
2022/12/21 03:33:14;;;;;;;28.27;13.20;;;7.00;98.70;;;;;;4998031;28;20038;-70
2022/12/21 03:35:48;;;;;;;29.48;12.85;;;6.90;98.90;;;;;;4999931;28;20049;-70
2022/12/21 03:38:27;;;;;;;30.65;13.98;;;7.00;99.30;;;;;;4997701;28;20403;-70
2022/12/21 03:40:57;;;;;;;34.08;14.05;;;7.00;99.10;;;;;;4997193;28;20125;-70
2022/12/21 03:43:32;;;;;;;32.28;14.50;;;7.00;99.30;;;;;;5003580;28;20034;-70
2022/12/21 03:46:03;;;;;;;39.40;15.75;;;7.00;99.20;;;;;;5004886;28;20018;-71
2022/12/21 03:48:37;;;;;;;35.78;14.80;;;6.90;99.60;;;;;;5001441;28;20233;-70
2022/12/21 03:51:34;;;;;;;29.83;14.15;;;6.90;99.80;;;;;;5001934;28;20168;-70
2022/12/21 03:54:24;;;;;;;32.25;14.02;;;7.00;99.70;;;;;;4999614;28;20038;-69
2022/12/21 03:56:50;;;;;;;32.30;14.70;;;7.00;99.40;;;;;;4998296;28;20049;-71
2022/12/21 03:59:17;;;;;;;30.35;15.20;;;7.00;99.60;;;;;;5033301;28;20034;-70
2022/12/21 04:02:03;;;;;;;31.33;13.68;;;7.00;99.50;;;;;;5002081;28;20033;-71
2022/12/21 04:04:53;;;;;;;34.17;14.30;;;7.00;99.50;;;;;;5000324;28;20661;-70
2022/12/21 04:07:24;;;;;;;29.52;14.23;;;7.00;99.80;;;;;;4992087;28;20034;-70
2022/12/21 04:10:03;;;;;;;26.85;13.10;;;7.00;99.60;;;;;;4995044;28;20744;-70
2022/12/21 04:12:39;;;;;;;37.70;15.50;;;7.10;99.60;;;;;;4998725;28;20084;-71
2022/12/21 04:15:07;;;;;;;31.70;14.53;;;7.10;99.60;;;;;;4996002;28;20038;-70
2022/12/21 04:17:32;;;;;;;29.70;13.77;;;7.10;99.50;;;;;;4999488;28;20038;-71
2022/12/21 04:19:58;;;;;;;33.63;14.93;;;7.20;99.50;;;;;;5002793;28;20049;-70
2022/12/21 04:28:07;;;;;;;31.80;14.38;;;7.20;99.50;;;;;;4999664;28;20033;-70
2022/12/21 04:30:40;;;;;;;27.95;15.20;;;7.20;99.40;;;;;;4994098;28;20053;-70
2022/12/21 04:33:09;;;;;;;32.30;14.45;;;7.10;99.50;;;;;;4999995;28;20171;-70
2022/12/21 04:35:35;;;;;;;34.53;15.48;;;7.10;99.70;;;;;;4992312;28;20092;-70
2022/12/21 04:38:02;;;;;;;33.30;14.68;;;7.10;99.60;;;;;;4995218;28;20046;-69
2022/12/21 04:40:28;;;;;;;34.05;15.05;;;7.20;99.60;;;;;;5002436;28;20621;-69
2022/12/21 04:42:54;;;;;;;32.17;15.27;;;7.20;99.70;;;;;;4999626;28;20033;-69
2022/12/21 04:45:20;;;;;;;32.35;15.05;;;7.30;99.70;;;;;;4996753;28;20444;-70
2022/12/21 04:47:46;;;;;;;32.47;14.40;;;7.20;99.50;;;;;;4999109;28;20029;-70
2022/12/21 04:50:12;;;;;;;33.58;15.05;;;7.20;99.70;;;;;;4997414;28;20037;-70
2022/12/21 04:52:38;;;;;;;27.00;13.23;;;7.20;99.60;;;;;;4994813;28;20034;-69
2022/12/21 04:55:04;;;;;;;33.63;14.18;;;7.30;99.50;;;;;;5001528;28;20764;-70
2022/12/21 04:57:30;;;;;;;34.17;14.98;;;7.40;99.40;;;;;;4993191;28;20033;-70
2022/12/21 04:59:56;;;;;;;28.38;12.98;;;7.40;99.40;;;;;;4996851;28;20033;-69
2022/12/21 05:02:22;;;;;;;32.13;15.18;;;7.50;99.20;;;;;;4998958;28;20764;-70
2022/12/21 05:04:48;;;;;;;32.00;14.80;;;7.60;98.90;;;;;;4994273;28;20060;-71
2022/12/21 05:07:14;;;;;;;32.33;13.88;;;7.60;99.10;;;;;;4999017;28;20494;-69
2022/12/21 05:09:40;;;;;;;30.25;13.80;;;7.60;99.10;;;;;;4998060;28;20814;-69
2022/12/21 05:12:06;;;;;;;30.95;15.05;;;7.60;99.20;;;;;;4999516;28;20932;-70
2022/12/21 05:14:32;;;;;;;28.98;14.05;;;7.50;99.30;;;;;;4999521;28;20555;-70
2022/12/21 05:16:58;;;;;;;30.52;14.57;;;7.50;99.50;;;;;;4998431;28;20032;-69
2022/12/21 05:19:24;;;;;;;34.70;15.45;;;7.50;99.40;;;;;;4999840;28;20038;-70
2022/12/21 05:21:50;;;;;;;34.85;14.27;;;7.50;99.50;;;;;;4995623;28;20038;-70
2022/12/21 05:24:16;;;;;;;30.65;14.20;;;7.50;99.50;;;;;;4995500;28;20027;-70
2022/12/21 05:26:41;;;;;;;28.75;13.93;;;7.60;99.40;;;;;;5002463;28;20563;-70
2022/12/21 05:29:09;;;;;;;32.25;15.23;;;7.60;99.50;;;;;;4997119;28;20061;-70
2022/12/21 05:31:35;;;;;;;27.05;13.23;;;7.70;99.60;;;;;;4998290;28;20498;-71
2022/12/21 05:34:00;;;;;;;30.88;15.50;;;7.70;99.60;;;;;;4997288;28;20057;-70
2022/12/21 05:36:26;;;;;;;33.97;14.57;;;7.70;99.60;;;;;;4997536;28;20064;-69
2022/12/21 05:38:52;;;;;;;27.80;13.77;;;7.80;99.50;;;;;;4998347;28;20029;-69
2022/12/21 05:41:17;;;;;;;32.45;14.25;;;7.80;99.50;;;;;;5000975;28;20029;-70
2022/12/21 05:43:44;;;;;;;29.13;15.18;;;7.80;99.50;;;;;;5000002;28;20042;-71
2022/12/21 05:46:11;;;;;;;29.38;13.63;;;7.80;99.60;;;;;;5000991;28;20022;-70
2022/12/21 05:48:37;;;;;;;33.67;15.10;;;7.80;99.70;;;;;;4997177;28;20026;-70
2022/12/21 05:51:09;;;;;;;28.55;14.20;;;7.80;99.90;;;;;;4999195;28;20449;-71
2022/12/21 05:53:38;;;;;;;34.38;14.35;;;7.80;99.90;;;;;;4994149;28;20095;-70
2022/12/21 05:56:05;;;;;;;26.63;14.52;;;7.90;99.90;;;;;;4999987;28;20057;-70
2022/12/21 05:58:31;;;;;;;32.40;14.27;;;7.90;99.90;;;;;;4994066;28;20045;-70
2022/12/21 06:01:01;;;;;;;27.40;14.38;;;7.90;99.90;;;;;;4995471;28;20071;-69
2022/12/21 06:03:26;;;;;;;30.17;14.20;;;8.00;99.80;;;;;;4994437;28;20165;-70
2022/12/21 06:05:52;;;;;;;28.55;14.70;;;7.90;99.90;;;;;;4997049;28;20070;-71
2022/12/21 06:08:18;;;;;;;28.75;14.43;;;7.90;99.80;;;;;;4997080;28;20030;-70
2022/12/21 06:10:44;;;;;;;31.85;14.93;;;8.00;99.80;;;;;;4989055;28;20038;-70
2022/12/21 06:13:10;;;;;;;33.60;14.80;;;8.00;99.80;;;;;;4996725;28;20061;-70
2022/12/21 06:15:36;;;;;;;25.15;13.60;;;8.00;99.80;;;;;;4996381;28;20050;-69
2022/12/21 06:18:04;;;;;;;28.70;12.98;;;8.10;99.80;;;;;;4984797;28;20099;-70
2022/12/21 06:20:31;;;;;;;26.88;13.27;;;8.10;99.70;;;;;;4991320;28;20029;-70
2022/12/21 06:22:57;;;;;;;25.90;13.35;;;8.10;99.80;;;;;;4994241;28;20045;-70
2022/12/21 06:25:22;;;;;;;26.42;13.48;;;8.10;99.60;;;;;;4991650;28;20437;-70
2022/12/21 06:27:48;;;;;;;26.48;13.40;;;8.20;99.60;;;;;;4988371;28;20375;-70
2022/12/21 06:30:14;;;;;;;24.10;12.88;;;8.20;99.40;;;;;;4985822;28;20070;-71
2022/12/21 06:32:40;;;;;;;21.75;12.32;;;8.20;99.30;;;;;;4991150;28;20141;-70
2022/12/21 06:35:06;;;;;;;24.88;12.02;;;8.20;99.20;;;;;;4990221;28;20042;-71
2022/12/21 06:37:32;;;;;;;24.77;12.77;;;8.30;99.20;;;;;;4994361;28;20038;-70
2022/12/21 06:39:58;;;;;;;25.10;12.13;;;8.30;99.10;;;;;;4989790;28;20406;-69
2022/12/21 06:42:24;;;;;;;24.42;12.77;;;8.30;99.10;;;;;;4992505;28;20734;-71
2022/12/21 06:44:50;;;;;;;27.67;14.98;;;8.30;99.20;;;;;;4988525;28;20116;-70
2022/12/21 06:47:16;;;;;;;28.00;12.85;;;8.40;99.30;;;;;;4992834;28;20034;-71
2022/12/21 06:49:42;;;;;;;26.90;14.63;;;8.40;99.40;;;;;;4993256;28;20038;-70
2022/12/21 06:52:08;;;;;;;31.75;14.95;;;8.40;99.50;;;;;;4997335;28;20034;-71
2022/12/21 06:54:34;;;;;;;25.65;14.43;;;8.40;99.40;;;;;;4999142;28;20029;-70
2022/12/21 06:56:59;;;;;;;29.33;14.70;;;8.40;99.30;;;;;;4998836;28;20042;-70
2022/12/21 06:59:25;;;;;;;29.65;14.18;;;8.40;99.30;;;;;;4995345;28;20180;-70
2022/12/21 07:01:51;;;;;;;27.50;14.02;;;8.30;99.30;;;;;;4991694;28;20065;-70
2022/12/21 07:04:16;;;;;;;27.13;14.43;;;8.30;99.50;;;;;;4991232;28;20034;-70
2022/12/21 07:06:42;;;;;;;27.08;14.45;;;8.30;99.60;;;;;;4993584;28;20124;-71
2022/12/21 07:09:11;;;;;;;26.15;13.70;;;8.20;99.70;;;;;;4995715;28;20125;-71
2022/12/21 07:11:37;;;;;;;26.45;13.57;;;8.30;99.80;;;;;;4994225;28;20423;-70
2022/12/21 07:14:03;;;;;;;27.30;14.05;;;8.30;99.70;;;;;;4987301;28;20185;-70
2022/12/21 07:16:29;;;;;;;27.70;14.13;;;8.20;99.80;;;;;;4997285;28;20026;-71
2022/12/21 07:18:55;;;;;;;30.88;14.80;;;8.30;99.90;;;;;;4993153;28;20018;-70
2022/12/21 07:21:21;;;;;;;26.83;13.98;;;8.30;99.90;;;;;;4993909;28;20494;-71
2022/12/21 07:23:47;;;;;;;29.60;14.80;;;8.30;99.70;;;;;;4994472;28;20050;-71
2022/12/21 07:26:16;;;;;;;27.95;14.10;;;8.30;99.60;;;;;;4999059;28;20109;-70
2022/12/21 07:28:47;;;;;;;30.40;15.55;;;8.30;99.70;;;;;;5001433;28;20173;-71
2022/12/21 07:31:16;;;;;;;29.02;15.65;;;8.30;99.70;;;;;;5003192;28;20077;-70
2022/12/21 07:33:42;;;;;;;29.88;14.55;;;8.30;99.70;;;;;;4988882;28;20105;-69
2022/12/21 07:36:09;;;;;;;26.23;13.98;;;8.30;99.70;;;;;;4986178;28;20553;-71
2022/12/21 07:38:36;;;;;;;27.52;12.57;;;8.30;99.60;;;;;;5000200;28;20037;-70
2022/12/21 07:41:04;;;;;;;26.80;13.02;;;8.30;99.40;;;;;;4999879;28;20042;-69
2022/12/21 07:43:31;;;;;;;24.40;13.85;;;8.30;99.40;;;;;;4995557;28;20038;-70
2022/12/21 07:46:25;;;;;;;26.38;13.32;;;8.30;99.30;;;;;;4999058;28;20145;-71
2022/12/21 07:48:53;;;;;;;24.80;13.57;;;8.40;99.30;;;;;;4999693;28;20058;-71
2022/12/21 07:51:19;;;;;;;22.17;12.15;;;8.40;99.20;;;;;;4995331;28;20827;-69
2022/12/21 07:53:44;;;;;;;29.27;14.00;;;8.50;99.10;;;;;;4993928;28;20030;-70
2022/12/21 07:56:12;;;;;;;27.90;13.32;;;8.50;99.20;;;;;;4994616;28;20807;-69
2022/12/21 07:58:38;;;;;;;25.30;12.95;;;8.50;99.10;;;;;;4995398;28;20029;-70
2022/12/21 08:01:12;;;;;;;29.00;13.20;;;8.50;99.20;;;;;;4995045;28;20554;-70
2022/12/21 08:03:41;;;;;;;24.65;12.55;;;8.50;99.10;;;;;;4996526;28;20391;-71
2022/12/21 08:06:07;;;;;;;24.20;13.35;;;8.60;99.20;;;;;;4992488;28;20109;-70
2022/12/21 08:08:35;;;;;;;25.77;14.13;;;8.60;99.00;;;;;;4998103;28;20061;-71
2022/12/21 08:11:01;;;;;;;25.95;14.15;;;8.60;99.30;;;;;;4999888;28;20445;-70
2022/12/21 08:13:27;;;;;;;24.55;12.38;;;8.60;99.20;;;;;;4997182;28;20042;-71
2022/12/21 08:16:04;;;;;;;26.90;13.95;;;8.60;99.00;;;;;;4990850;28;20040;-71
2022/12/21 08:18:32;;;;;;;23.65;13.20;;;8.60;99.20;;;;;;4998649;28;20108;-70
2022/12/21 08:20:58;;;;;;;29.60;14.20;;;8.60;99.20;;;;;;4990865;28;20545;-71
2022/12/21 08:23:24;;;;;;;27.40;14.32;;;8.70;99.20;;;;;;4997603;28;20034;-70
2022/12/21 08:25:51;;;;;;;25.42;13.52;;;8.70;99.40;;;;;;4996855;28;20048;-70
2022/12/21 08:28:17;;;;;;;27.33;13.98;;;8.60;99.50;;;;;;4988236;28;20041;-70
2022/12/21 08:30:43;;;;;;;27.40;13.85;;;8.70;99.40;;;;;;4994231;28;20041;-71
2022/12/21 08:33:09;;;;;;;25.80;13.85;;;8.70;99.50;;;;;;4988281;28;20034;-70
2022/12/21 08:35:36;;;;;;;25.40;13.63;;;8.70;99.30;;;;;;4996235;28;20041;-70
2022/12/21 08:38:02;;;;;;;29.65;14.52;;;8.80;99.40;;;;;;4991249;28;20045;-70
2022/12/21 08:40:27;;;;;;;22.33;13.20;;;8.90;99.30;;;;;;4995592;28;20597;-71
2022/12/21 08:42:53;;;;;;;28.15;14.38;;;9.00;99.20;;;;;;4989278;28;20802;-70
2022/12/21 08:45:19;;;;;;;27.90;13.88;;;9.00;99.30;;;;;;4991609;28;20038;-70
2022/12/21 08:47:47;;;;;;;26.70;13.85;;;8.90;99.20;;;;;;4997409;28;20049;-70
2022/12/21 08:50:13;;;;;;;26.98;14.23;;;9.00;99.30;;;;;;4998296;28;20037;-71
2022/12/21 08:52:39;;;;;;;24.80;12.95;;;9.10;99.30;;;;;;4978408;28;20197;-70
2022/12/21 08:55:05;;;;;;;23.33;13.35;;;9.10;99.10;;;;;;4995462;28;20035;-68
2022/12/21 08:57:32;;;;;;;22.30;12.65;;;9.20;98.70;;;;;;5018177;28;20029;-71
2022/12/21 08:59:57;;;;;;;23.75;13.07;;;9.20;98.70;;;;;;5000150;28;20039;-70
2022/12/21 09:02:23;;;;;;;24.30;13.75;;;9.20;98.70;;;;;;4998342;28;20030;-72
2022/12/21 09:04:49;;;;;;;25.67;13.90;;;9.20;98.70;;;;;;4994097;28;20026;-73
2022/12/21 09:07:15;;;;;;;28.60;14.23;;;9.10;98.80;;;;;;5002716;28;20068;-74
2022/12/21 09:09:42;;;;;;;28.42;14.07;;;9.10;98.80;;;;;;4995124;28;20080;-73
2022/12/21 09:12:08;;;;;;;26.35;13.27;;;9.10;99.00;;;;;;4994774;28;20046;-72
2022/12/21 09:14:34;;;;;;;25.58;14.77;;;9.10;99.00;;;;;;4993662;28;20048;-72
2022/12/21 09:16:59;;;;;;;26.58;14.63;;;9.00;99.20;;;;;;4994940;28;20034;-72
2022/12/21 09:19:25;;;;;;;27.85;14.02;;;8.90;99.40;;;;;;4995426;28;20026;-72
2022/12/21 09:21:51;;;;;;;26.75;14.00;;;8.90;99.50;;;;;;4992439;28;20030;-73
2022/12/21 09:24:17;;;;;;;27.27;13.48;;;9.00;99.50;;;;;;4994728;28;20037;-72
2022/12/21 09:26:43;;;;;;;27.00;13.95;;;9.10;99.40;;;;;;4995484;28;20029;-72
2022/12/21 09:29:10;;;;;;;26.02;13.98;;;9.10;99.20;;;;;;4997812;28;20399;-71
2022/12/21 09:31:37;;;;;;;21.88;13.23;;;9.10;99.40;;;;;;4990083;28;20033;-72
2022/12/21 09:34:03;;;;;;;32.63;16.63;;;9.00;99.30;;;;;;5000244;28;20091;-72
2022/12/21 09:36:29;;;;;;;26.02;14.00;;;9.00;99.50;;;;;;5000015;28;20449;-72
2022/12/21 09:38:55;;;;;;;24.80;14.70;;;9.10;99.60;;;;;;4988915;28;20118;-72
2022/12/21 09:41:29;;;;;;;26.75;14.57;;;9.10;99.30;;;;;;4991408;28;20079;-72
2022/12/21 09:44:13;;;;;;;27.27;14.80;;;9.10;99.40;;;;;;4990655;28;20034;-72
2022/12/21 09:46:44;;;;;;;27.55;14.85;;;9.20;99.20;;;;;;4994113;28;20034;-72
2022/12/21 09:49:22;;;;;;;25.98;14.27;;;9.20;99.10;;;;;;4998521;28;20038;-69
2022/12/21 09:51:54;;;;;;;29.23;15.77;;;9.10;99.20;;;;;;4994440;28;20182;-74
2022/12/21 09:54:44;;;;;;;28.00;14.90;;;9.10;99.40;;;;;;4994483;28;20036;-74
2022/12/21 09:57:13;;;;;;;26.13;13.35;;;9.10;99.90;;;;;;4988681;28;20590;-74
2022/12/21 09:59:40;;;;;;;30.63;15.65;;;9.10;99.40;;;;;;4991237;28;20121;-73
2022/12/21 10:02:14;;;;;;;30.48;15.38;;;9.20;99.50;;;;;;4986885;28;20124;-72
2022/12/21 10:04:45;;;;;;;25.73;14.38;;;9.20;99.40;;;;;;4994827;28;20054;-73
2022/12/21 10:07:36;;;;;;;23.42;13.80;;;9.10;99.50;;;;;;4990980;28;20056;-72
2022/12/21 10:10:20;;;;;;;23.75;12.93;;;9.10;99.40;;;;;;4995085;28;20041;-73
2022/12/21 10:13:05;;;;;;;25.05;14.32;;;9.20;99.50;;;;;;4989271;28;20068;-73
2022/12/21 10:15:54;;;;;;;22.25;13.18;;;9.30;99.30;;;;;;4988773;28;20049;-72
2022/12/21 10:18:44;;;;;;;24.27;13.50;;;9.20;99.30;;;;;;4993150;28;20042;-73
2022/12/21 10:21:48;;;;;;;26.80;13.93;;;9.20;99.60;;;;;;4985039;28;20042;-72
2022/12/21 10:24:29;;;;;;;25.85;14.50;;;9.20;99.60;;;;;;4956828;28;20151;-72
2022/12/21 10:27:20;;;;;;;24.17;13.48;;;9.10;99.70;;;;;;4985770;28;20046;-72
2022/12/21 10:29:51;;;;;;;21.83;12.23;;;9.20;99.70;;;;;;4990122;28;20042;-73
2022/12/21 10:32:17;;;;;;;24.98;13.75;;;9.20;99.70;;;;;;4994124;28;20026;-71
2022/12/21 10:34:47;;;;;;;25.15;14.30;;;9.30;99.50;;;;;;4989289;28;20045;-72
2022/12/21 10:37:19;;;;;;;22.50;12.57;;;9.30;99.30;;;;;;4993155;28;20037;-72
2022/12/21 10:39:52;;;;;;;20.50;12.90;;;9.40;99.00;;;;;;4992457;28;20039;-73
2022/12/21 10:42:37;;;;;;;22.20;12.40;;;9.40;99.20;;;;;;4987111;28;20550;-74
2022/12/21 10:45:03;;;;;;;21.67;12.20;;;9.40;99.20;;;;;;4991731;28;20081;-69
2022/12/21 10:47:29;;;;;;;19.83;12.43;;;9.40;99.10;;;;;;4992559;28;20042;-69
2022/12/21 10:50:14;;;;;;;23.00;13.15;;;9.60;99.00;;;;;;4990209;28;20022;-69
2022/12/21 10:52:53;;;;;;;22.95;13.10;;;9.60;98.80;;;;;;4994653;28;20058;-70
2022/12/21 10:55:19;;;;;;;24.60;13.70;;;9.70;98.90;;;;;;4997302;28;20030;-72
2022/12/21 10:58:16;;;;;;;23.17;13.20;;;9.70;98.70;;;;;;5022316;28;20095;-69
2022/12/21 11:00:50;;;;;;;;;;;9.70;98.90;;;;;;4996846;28;20053;-71
2022/12/21 11:03:44;;;;;;;23.63;13.07;;;9.70;98.80;;;;;;4992798;28;20610;-69
2022/12/21 11:06:19;;;;;;;20.00;11.73;;;9.70;98.90;;;;;;4991590;28;20048;-71
2022/12/21 11:08:47;;;;;;;23.08;14.32;;;9.80;98.80;;;;;;4988784;28;20030;-70
2022/12/21 11:11:36;;;;;;;23.23;13.23;;;9.80;98.80;;;;;;4998338;28;20026;-71
2022/12/21 11:14:16;;;;;;;23.20;12.98;;;9.80;99.00;;;;;;4998099;28;20767;-69
2022/12/21 11:16:47;;;;;;;21.75;12.63;;;9.90;98.80;;;;;;4996366;28;20149;-69
2022/12/21 11:19:15;;;;;;;22.42;12.40;;;9.90;98.80;;;;;;4998549;28;20406;-70
2022/12/21 11:21:48;;;;;;;21.67;12.50;;;9.90;98.70;;;;;;4995462;28;20041;-69
2022/12/21 11:24:21;;;;;;;21.58;12.10;;;9.90;98.70;;;;;;5002202;28;20046;-71
2022/12/21 11:26:55;;;;;;;21.15;12.30;;;9.90;98.80;;;;;;4998182;28;20038;-69
2022/12/21 11:29:46;;;;;;;20.63;12.38;;;10.00;98.70;;;;;;4991307;28;20046;-70
2022/12/21 11:32:15;;;;;;;22.98;13.07;;;10.00;98.60;;;;;;4993292;28;20116;-71
2022/12/21 11:34:58;;;;;;;21.25;12.43;;;10.00;98.20;;;;;;4990955;28;20065;-72
2022/12/21 11:37:43;;;;;;;20.13;13.00;;;10.00;98.40;;;;;;4993516;28;20026;-71
2022/12/21 11:40:16;;;;;;;18.10;11.93;;;9.90;98.40;;;;;;4991228;28;20080;-72
2022/12/21 11:43:00;;;;;;;17.77;11.13;;;9.90;98.60;;;;;;4990579;28;20034;-70
2022/12/21 11:45:42;;;;;;;20.38;12.23;;;9.90;98.60;;;;;;4991305;28;20093;-74
2022/12/21 11:48:39;;;;;;;18.65;11.50;;;10.00;98.70;;;;;;5024678;28;20034;-75
2022/12/21 11:51:23;;;;;;;20.67;12.32;;;10.10;98.60;;;;;;4993025;28;20034;-70
2022/12/21 11:54:27;;;;;;;17.60;11.07;;;10.10;98.60;;;;;;4994981;28;20042;-70
2022/12/21 11:57:09;;;;;;;17.65;10.93;;;10.10;98.60;;;;;;4996098;28;20042;-70
2022/12/21 12:00:16;;;;;;;15.30;10.48;;;10.10;98.80;;;;;;4996673;28;20042;-77
2022/12/21 12:03:18;;;;;;;19.10;11.65;;;10.20;98.30;;;;;;4983991;28;20138;-74
2022/12/21 12:06:17;;;;;;;14.15;8.90;;;10.20;98.30;;;;;;4996555;28;20026;-73
2022/12/21 12:09:01;;;;;;;19.45;10.27;;;10.10;98.10;;;;;;4992665;28;20161;-73
2022/12/21 12:12:00;;;;;;;17.13;10.75;;;10.20;98.10;;;;;;4993916;28;20117;-71
2022/12/21 12:14:44;;;;;;;16.60;10.05;;;10.20;98.20;;;;;;4989913;28;20037;-70
2022/12/21 12:17:39;;;;;;;19.92;11.77;;;10.20;98.30;;;;;;4992893;28;20154;-70
2022/12/21 12:20:39;;;;;;;18.02;11.18;;;10.20;98.40;;;;;;4992686;28;20109;-70
2022/12/21 12:23:14;;;;;;;19.13;11.57;;;10.20;98.40;;;;;;4963884;28;20058;-74
2022/12/21 12:25:54;;;;;;;18.90;11.38;;;10.10;98.60;;;;;;4997778;28;20034;-69
2022/12/21 12:28:45;;;;;;;20.25;11.73;;;10.10;98.90;;;;;;4995761;28;20561;-71
2022/12/21 12:31:34;;;;;;;18.67;11.93;;;10.00;98.70;;;;;;4990187;28;20042;-70
2022/12/21 12:34:03;;;;;;;20.27;12.20;;;9.90;98.90;;;;;;4988211;28;20061;-69
2022/12/21 12:36:50;;;;;;;19.00;10.95;;;9.90;99.10;;;;;;4992331;28;20446;-71
2022/12/21 12:39:50;;;;;;;19.08;10.70;;;9.90;99.20;;;;;;4986973;28;20041;-70
2022/12/21 12:42:22;;;;;;;16.88;10.65;;;9.90;99.30;;;;;;4996744;28;20029;-69
2022/12/21 12:45:06;;;;;;;18.58;10.93;;;10.10;99.00;;;;;;4995159;28;20032;-70
2022/12/21 12:48:05;;;;;;;20.27;11.90;;;10.20;99.00;;;;;;4993395;28;20502;-71
2022/12/21 12:50:50;;;;;;;19.95;11.10;;;10.20;99.00;;;;;;4994143;28;20030;-72
2022/12/21 12:53:22;;;;;;;19.55;12.15;;;10.10;99.20;;;;;;4992200;28;20044;-71
2022/12/21 12:56:10;;;;;;;19.77;11.95;;;10.20;99.20;;;;;;5020491;28;20034;-70
2022/12/21 12:58:50;;;;;;;22.05;11.65;;;10.20;99.10;;;;;;4994939;28;20034;-70
2022/12/21 13:01:37;;;;;;;17.95;11.52;;;10.20;99.00;;;;;;4988499;28;20116;-70
2022/12/21 13:04:18;;;;;;;18.88;11.65;;;10.20;99.00;;;;;;4992963;28;20034;-70
2022/12/21 13:06:59;;;;;;;20.75;11.80;;;10.20;98.90;;;;;;4993473;28;20041;-68
2022/12/21 13:09:57;;;;;;;17.67;11.07;;;10.20;98.90;;;;;;4993095;28;20034;-70
2022/12/21 13:12:52;;;;;;;17.10;11.57;;;10.10;99.20;;;;;;4995970;28;20108;-68